Time;durP1;ratioP1;P1;durP2;ratioP2;P2;SDS_P1;SDS_P2;PMS_P1;PMS_P2;Temp;Humidity;BMP_temperature;BMP_pressure;BME280_temperature;BME280_humidity;BME280_pressure;Samples;Min_cycle;Max_cycle;Signal;HPM_P1;HPM_P2
2024/04/01 00:01:39;;;;;;;10.23;5.03;;;10.80;91.90;;;;;;5045515;28;20179;-65
2024/04/01 00:04:05;;;;;;;6.40;4.90;;;10.80;92.50;;;;;;5040808;28;20188;-63
2024/04/01 00:06:30;;;;;;;9.93;5.77;;;10.80;92.70;;;;;;5043617;28;20250;-65
2024/04/01 00:08:56;;;;;;;10.97;5.57;;;10.80;92.40;;;;;;5051424;28;20190;-65
2024/04/01 00:11:22;;;;;;;8.43;5.20;;;10.70;92.10;;;;;;5048910;28;20591;-64
2024/04/01 00:13:48;;;;;;;9.93;5.43;;;10.60;93.00;;;;;;5041623;28;20202;-64
2024/04/01 00:16:14;;;;;;;9.70;5.20;;;10.60;93.50;;;;;;5046990;28;20187;-64
2024/04/01 00:18:40;;;;;;;14.93;5.30;;;10.60;93.80;;;;;;5046734;28;20421;-64
2024/04/01 00:21:06;;;;;;;9.97;5.20;;;10.50;94.20;;;;;;5043361;28;20199;-64
2024/04/01 00:23:31;;;;;;;14.20;4.90;;;10.50;94.70;;;;;;5046027;28;20820;-61
2024/04/01 00:25:58;;;;;;;11.33;5.60;;;10.50;95.00;;;;;;5043963;28;20198;-64
2024/04/01 00:28:24;;;;;;;13.30;5.23;;;10.50;95.20;;;;;;5046740;28;21082;-65
2024/04/01 00:30:49;;;;;;;6.87;4.40;;;10.40;95.30;;;;;;5031185;28;20303;-65
2024/04/01 00:33:15;;;;;;;6.60;4.30;;;10.40;95.50;;;;;;5047193;28;20186;-64
2024/04/01 00:35:40;;;;;;;9.80;4.07;;;10.40;96.30;;;;;;5059204;28;20717;-65
2024/04/01 00:38:06;;;;;;;10.50;4.10;;;10.30;95.60;;;;;;5051988;28;20185;-64
2024/04/01 00:40:34;;;;;;;8.03;3.90;;;10.30;95.60;;;;;;5036204;28;20187;-63
2024/04/01 00:43:18;;;;;;;10.17;4.27;;;10.30;95.90;;;;;;5043420;28;20421;-64
2024/04/01 00:45:46;;;;;;;8.30;4.30;;;10.30;95.70;;;;;;5029658;28;20425;-64
2024/04/01 00:48:13;;;;;;;11.63;3.63;;;10.30;95.80;;;;;;5041395;28;20432;-65
2024/04/01 00:50:42;;;;;;;8.67;3.47;;;10.30;95.90;;;;;;5049382;28;20444;-64
2024/04/01 00:53:10;;;;;;;5.77;3.27;;;10.40;95.80;;;;;;5037062;28;20845;-64
2024/04/01 00:55:39;;;;;;;8.03;3.57;;;10.40;95.80;;;;;;5048395;28;20487;-65
2024/04/01 00:58:05;;;;;;;16.47;3.50;;;10.40;95.10;;;;;;5048513;28;20430;-66
2024/04/01 01:00:32;;;;;;;7.20;3.63;;;10.50;95.10;;;;;;5047290;28;20513;-63
2024/04/01 01:02:59;;;;;;;6.13;3.80;;;10.40;94.80;;;;;;5045048;28;20418;-65
2024/04/01 01:05:25;;;;;;;4.87;2.97;;;10.40;95.40;;;;;;5048047;28;20493;-64
2024/04/01 01:07:50;;;;;;;6.77;3.40;;;10.40;95.50;;;;;;5049330;28;20532;-66
2024/04/01 01:10:17;;;;;;;8.47;3.70;;;10.40;96.00;;;;;;5042500;28;20566;-64
2024/04/01 01:12:42;;;;;;;9.07;3.70;;;10.40;95.60;;;;;;5056929;28;20226;-64
2024/04/01 01:15:11;;;;;;;13.37;3.60;;;10.40;96.00;;;;;;5041719;28;20943;-65
2024/04/01 01:17:37;;;;;;;7.90;3.40;;;10.50;95.40;;;;;;5033669;28;20183;-64
2024/04/01 01:20:03;;;;;;;11.27;3.77;;;10.40;95.60;;;;;;5042006;28;20437;-63
2024/04/01 01:22:33;;;;;;;10.47;4.00;;;10.40;96.10;;;;;;5046211;28;20873;-64
2024/04/01 01:24:59;;;;;;;10.03;3.87;;;10.40;96.00;;;;;;5045897;28;20949;-65
2024/04/01 01:27:25;;;;;;;6.87;3.30;;;10.30;96.40;;;;;;5043863;28;20467;-64
2024/04/01 01:29:50;;;;;;;7.53;3.63;;;10.30;95.90;;;;;;5047947;28;20322;-64
2024/04/01 01:32:16;;;;;;;10.10;3.63;;;10.20;96.80;;;;;;5043378;28;20177;-66
2024/04/01 01:34:42;;;;;;;13.57;3.50;;;10.20;98.30;;;;;;5043756;28;20263;-63
2024/04/01 01:37:08;;;;;;;9.23;3.27;;;10.20;98.90;;;;;;5039640;28;20529;-64
2024/04/01 01:39:34;;;;;;;5.50;3.33;;;10.20;99.40;;;;;;5051761;28;20191;-63
2024/04/01 01:42:00;;;;;;;6.77;3.20;;;10.20;98.80;;;;;;5045291;28;20424;-65
2024/04/01 01:44:26;;;;;;;11.27;3.73;;;10.20;98.30;;;;;;5046174;28;20809;-64
2024/04/01 01:46:51;;;;;;;8.50;4.40;;;10.20;98.70;;;;;;5042655;28;20215;-64
2024/04/01 01:49:17;;;;;;;9.00;3.87;;;10.20;99.20;;;;;;5046734;28;20288;-64
2024/04/01 01:51:43;;;;;;;11.43;4.37;;;10.20;99.30;;;;;;5043599;28;20190;-65
2024/04/01 01:54:09;;;;;;;6.07;3.50;;;10.20;99.60;;;;;;5041030;28;20426;-64
2024/04/01 01:56:34;;;;;;;6.47;3.00;;;10.20;99.00;;;;;;5038799;28;20214;-63
2024/04/01 01:59:00;;;;;;;10.13;3.80;;;10.10;98.20;;;;;;5037795;28;20188;-64
2024/04/01 02:01:25;;;;;;;8.53;3.90;;;10.10;98.60;;;;;;5041648;28;20756;-65
2024/04/01 02:03:51;;;;;;;12.43;4.20;;;10.10;98.70;;;;;;5050223;28;20654;-64
2024/04/01 02:06:16;;;;;;;10.30;3.80;;;10.10;99.60;;;;;;5044765;28;20207;-63
2024/04/01 02:08:42;;;;;;;8.60;4.00;;;10.10;99.90;;;;;;5034086;28;20183;-64
2024/04/01 02:11:12;;;;;;;6.67;3.43;;;10.10;99.90;;;;;;5043773;28;20270;-64
2024/04/01 02:13:39;;;;;;;8.87;3.43;;;10.00;99.90;;;;;;5038573;28;20175;-64
2024/04/01 02:16:07;;;;;;;12.30;3.70;;;10.00;99.90;;;;;;5042268;28;20945;-64
2024/04/01 02:18:33;;;;;;;11.03;4.00;;;10.00;99.90;;;;;;5032960;28;20441;-64
2024/04/01 02:20:59;;;;;;;11.93;3.70;;;10.00;99.90;;;;;;5043653;28;20429;-64
2024/04/01 02:23:31;;;;;;;11.73;4.13;;;10.00;99.90;;;;;;5053608;28;20421;-64
2024/04/01 02:26:01;;;;;;;12.30;5.27;;;9.90;99.90;;;;;;5046694;28;20435;-64
2024/04/01 02:28:28;;;;;;;6.23;3.20;;;9.90;99.90;;;;;;5043673;28;20438;-64
2024/04/01 02:30:54;;;;;;;8.97;3.73;;;9.90;99.90;;;;;;5030905;28;20440;-65
2024/04/01 02:33:19;;;;;;;8.00;4.10;;;9.90;99.90;;;;;;5043348;28;20433;-64
2024/04/01 02:35:45;;;;;;;4.73;3.60;;;9.90;99.90;;;;;;5045477;28;20180;-64
2024/04/01 02:38:10;;;;;;;9.73;3.70;;;10.00;99.90;;;;;;5042075;28;20605;-64
2024/04/01 02:40:36;;;;;;;3.67;3.33;;;9.90;99.90;;;;;;5047149;28;20210;-65
2024/04/01 02:43:03;;;;;;;5.53;3.03;;;9.90;99.90;;;;;;5050945;28;20213;-63
2024/04/01 02:45:32;;;;;;;8.67;3.40;;;9.90;99.90;;;;;;5044841;28;20699;-65
2024/04/01 02:47:58;;;;;;;10.07;3.20;;;9.90;99.90;;;;;;5037872;28;20458;-63
2024/04/01 02:50:23;;;;;;;5.70;3.10;;;9.80;99.90;;;;;;5044288;28;20437;-64
2024/04/01 02:52:49;;;;;;;4.60;2.70;;;9.80;99.90;;;;;;5048778;28;20603;-64
2024/04/01 02:55:16;;;;;;;7.43;3.27;;;9.80;99.90;;;;;;5047431;28;20182;-65
2024/04/01 02:57:43;;;;;;;6.53;3.00;;;9.80;99.90;;;;;;5040640;28;20638;-64
2024/04/01 03:00:16;;;;;;;11.90;3.70;;;9.80;99.90;;;;;;5045969;28;20514;-64
2024/04/01 03:02:42;;;;;;;7.33;3.73;;;9.80;99.90;;;;;;5032434;28;20424;-65
2024/04/01 03:05:08;;;;;;;13.20;3.20;;;9.80;99.90;;;;;;5045511;28;20985;-65
2024/04/01 03:07:34;;;;;;;4.70;2.90;;;9.90;99.90;;;;;;5047631;28;20472;-63
2024/04/01 03:10:00;;;;;;;4.07;2.70;;;9.90;99.90;;;;;;5043227;28;20454;-64
2024/04/01 03:12:26;;;;;;;7.50;3.10;;;9.90;99.90;;;;;;5042254;28;20179;-65
2024/04/01 03:14:53;;;;;;;10.33;3.37;;;9.80;99.90;;;;;;5046264;28;20272;-64
2024/04/01 03:17:19;;;;;;;6.37;3.00;;;9.80;99.90;;;;;;5050739;28;20437;-63
2024/04/01 03:19:45;;;;;;;9.80;3.17;;;9.80;99.90;;;;;;5045416;28;21158;-64
2024/04/01 03:22:10;;;;;;;12.20;3.37;;;9.80;99.90;;;;;;5048277;28;20186;-64
2024/04/01 03:24:36;;;;;;;4.33;2.93;;;9.80;99.90;;;;;;5060329;28;20260;-64
2024/04/01 03:27:01;;;;;;;10.13;3.47;;;9.70;99.90;;;;;;5041184;28;20198;-65
2024/04/01 03:29:27;;;;;;;10.40;3.40;;;9.70;99.90;;;;;;5052461;28;20234;-65
2024/04/01 03:31:53;;;;;;;10.73;2.80;;;9.70;99.90;;;;;;5047107;28;21069;-64
2024/04/01 03:34:19;;;;;;;6.23;3.20;;;9.80;99.90;;;;;;5047428;28;20175;-63
2024/04/01 03:36:45;;;;;;;8.47;3.10;;;9.80;99.90;;;;;;5028321;28;20179;-64
2024/04/01 03:39:13;;;;;;;5.57;2.70;;;9.70;99.90;;;;;;5053109;28;20475;-63
2024/04/01 03:41:39;;;;;;;6.03;2.90;;;9.70;99.90;;;;;;5047855;28;20173;-65
2024/04/01 03:44:05;;;;;;;8.53;2.43;;;9.70;99.90;;;;;;5025332;28;20412;-64
2024/04/01 03:46:31;;;;;;;7.53;3.50;;;9.80;99.90;;;;;;5036457;28;20841;-63
2024/04/01 03:48:57;;;;;;;18.33;3.73;;;9.80;99.90;;;;;;5050602;28;20410;-64
2024/04/01 03:51:23;;;;;;;12.43;3.70;;;9.80;99.90;;;;;;5040721;28;20227;-65
2024/04/01 03:53:48;;;;;;;9.80;3.50;;;9.70;99.90;;;;;;5052343;28;20176;-65
2024/04/01 03:56:14;;;;;;;8.30;3.70;;;9.70;99.90;;;;;;5037522;28;20574;-64
2024/04/01 03:58:39;;;;;;;13.30;3.47;;;9.70;99.90;;;;;;5047084;28;20192;-64
2024/04/01 04:01:05;;;;;;;6.53;3.80;;;9.80;99.90;;;;;;5054052;28;20194;-65
2024/04/01 04:03:30;;;;;;;4.40;3.20;;;9.80;99.90;;;;;;5050268;28;20183;-64
2024/04/01 04:05:56;;;;;;;9.27;3.83;;;9.80;99.90;;;;;;5050515;28;20187;-64
2024/04/01 04:08:22;;;;;;;14.20;4.30;;;9.80;99.90;;;;;;5046730;28;20605;-64
2024/04/01 04:10:47;;;;;;;5.97;3.33;;;9.80;99.90;;;;;;5039191;28;20198;-63
2024/04/01 04:13:15;;;;;;;14.93;3.90;;;9.80;99.90;;;;;;5044072;28;20737;-64
2024/04/01 04:15:40;;;;;;;8.77;3.40;;;9.80;99.90;;;;;;5048543;28;20210;-64
2024/04/01 04:18:06;;;;;;;5.80;3.73;;;9.80;99.90;;;;;;5044704;28;20936;-64
2024/04/01 04:20:32;;;;;;;8.93;3.73;;;9.80;99.90;;;;;;5042143;28;20195;-63
2024/04/01 04:22:57;;;;;;;4.23;3.10;;;9.80;99.90;;;;;;5045057;28;20179;-65
2024/04/01 04:25:23;;;;;;;9.23;4.10;;;9.80;99.90;;;;;;5049195;28;20192;-66
2024/04/01 04:27:49;;;;;;;10.20;3.90;;;9.80;99.90;;;;;;5052210;28;20693;-64
2024/04/01 04:30:14;;;;;;;5.40;3.77;;;9.80;99.90;;;;;;5050004;28;20241;-64
2024/04/01 04:32:40;;;;;;;7.33;3.47;;;9.80;99.90;;;;;;5044448;28;20175;-63
2024/04/01 04:35:09;;;;;;;13.27;4.20;;;9.80;99.90;;;;;;5047263;28;20237;-64
2024/04/01 04:37:36;;;;;;;9.27;4.00;;;9.80;99.90;;;;;;5044936;28;20194;-64
2024/04/01 04:40:05;;;;;;;9.17;3.47;;;9.80;99.90;;;;;;5053057;28;20437;-65
2024/04/01 04:42:31;;;;;;;12.73;3.30;;;9.90;99.90;;;;;;5020396;28;20847;-64
2024/04/01 04:44:57;;;;;;;11.57;3.23;;;9.90;99.90;;;;;;5050677;28;20470;-64
2024/04/01 04:47:23;;;;;;;6.77;2.90;;;9.90;99.90;;;;;;5037426;28;20469;-63
2024/04/01 04:49:48;;;;;;;14.10;3.63;;;9.90;99.90;;;;;;5042712;28;20605;-64
2024/04/01 04:52:14;;;;;;;15.00;2.90;;;9.90;99.90;;;;;;5031045;28;20183;-65
2024/04/01 04:54:39;;;;;;;6.47;3.40;;;9.90;99.90;;;;;;5039919;28;20245;-63
2024/04/01 04:57:05;;;;;;;7.93;3.27;;;9.90;99.90;;;;;;5045651;28;20267;-63
2024/04/01 04:59:33;;;;;;;12.20;3.40;;;9.90;99.90;;;;;;5035616;28;20218;-63
2024/04/01 05:02:06;;;;;;;11.60;2.80;;;9.90;99.90;;;;;;5040303;28;20698;-64
2024/04/01 05:04:32;;;;;;;10.10;3.40;;;9.90;99.90;;;;;;5050272;28;20406;-61
2024/04/01 05:06:58;;;;;;;10.10;3.13;;;9.90;99.90;;;;;;5047030;28;20491;-63
2024/04/01 05:09:24;;;;;;;8.43;4.03;;;9.90;99.90;;;;;;5049349;28;20983;-63
2024/04/01 05:11:49;;;;;;;10.20;3.90;;;9.90;99.90;;;;;;5054086;28;20254;-63
2024/04/01 05:14:15;;;;;;;7.43;3.80;;;9.80;99.90;;;;;;5028881;28;20183;-64
2024/04/01 05:16:41;;;;;;;8.43;3.73;;;9.80;99.90;;;;;;5043731;28;20195;-64
2024/04/01 05:19:07;;;;;;;12.43;3.97;;;9.80;99.90;;;;;;5043526;28;20261;-63
2024/04/01 05:21:33;;;;;;;6.27;3.60;;;9.80;99.90;;;;;;5039167;28;20426;-64
2024/04/01 05:23:58;;;;;;;9.17;3.73;;;9.80;99.90;;;;;;5047414;28;20301;-61
2024/04/01 05:26:24;;;;;;;7.10;3.33;;;9.70;99.90;;;;;;5044536;28;21444;-63
2024/04/01 05:28:50;;;;;;;13.57;3.77;;;9.70;99.90;;;;;;5038599;28;20180;-63
2024/04/01 05:31:15;;;;;;;7.90;3.73;;;9.70;99.90;;;;;;5046465;28;20203;-63
2024/04/01 05:33:41;;;;;;;7.37;3.50;;;9.70;99.90;;;;;;5037820;28;20221;-64
2024/04/01 05:36:07;;;;;;;11.53;3.53;;;9.70;99.90;;;;;;5042250;28;20263;-64
2024/04/01 05:38:33;;;;;;;18.77;4.10;;;9.70;99.90;;;;;;5047444;28;20183;-62
2024/04/01 05:40:58;;;;;;;8.30;3.80;;;9.70;99.90;;;;;;5042903;28;20202;-63
2024/04/01 05:43:24;;;;;;;10.23;3.60;;;9.70;99.90;;;;;;5043404;28;20183;-63
2024/04/01 05:45:49;;;;;;;6.07;3.53;;;9.70;99.90;;;;;;5049950;28;20211;-63
2024/04/01 05:48:16;;;;;;;5.50;3.10;;;9.70;99.90;;;;;;5025218;28;20211;-64
2024/04/01 05:50:49;;;;;;;6.27;2.57;;;9.70;99.90;;;;;;5045989;28;20191;-63
2024/04/01 05:53:14;;;;;;;11.80;3.93;;;9.70;99.90;;;;;;5043758;28;20947;-63
2024/04/01 05:55:40;;;;;;;5.30;2.80;;;9.70;99.90;;;;;;5038775;28;20422;-65
2024/04/01 05:58:08;;;;;;;5.53;2.57;;;9.60;99.90;;;;;;5047200;28;20234;-63
2024/04/01 06:00:33;;;;;;;5.63;2.40;;;9.60;99.90;;;;;;5048456;28;20198;-62
2024/04/01 06:02:59;;;;;;;12.07;4.30;;;9.60;99.90;;;;;;5037178;28;20433;-63
2024/04/01 06:05:24;;;;;;;9.50;2.83;;;9.60;99.90;;;;;;5040569;28;20179;-63
2024/04/01 06:07:50;;;;;;;6.13;1.80;;;9.50;99.90;;;;;;5037069;28;20329;-64
2024/04/01 06:10:15;;;;;;;7.50;1.60;;;9.50;99.90;;;;;;5045125;28;20195;-63
2024/04/01 06:12:41;;;;;;;2.80;1.50;;;9.50;99.90;;;;;;5047577;28;20637;-63
2024/04/01 06:15:07;;;;;;;4.50;1.50;;;9.40;99.90;;;;;;5046378;28;20172;-63
2024/04/01 06:17:32;;;;;;;1.97;1.40;;;9.40;99.90;;;;;;5044705;28;20260;-62
2024/04/01 06:19:58;;;;;;;1.47;1.20;;;9.30;99.90;;;;;;5046639;28;20203;-62
2024/04/01 06:22:23;;;;;;;7.33;1.37;;;9.30;99.90;;;;;;5045842;28;20180;-63
2024/04/01 06:24:50;;;;;;;3.77;1.03;;;9.20;99.90;;;;;;5044931;28;20172;-62
2024/04/01 06:27:17;;;;;;;2.07;1.10;;;9.20;99.90;;;;;;5049525;28;20202;-62
2024/04/01 06:29:42;;;;;;;2.27;1.30;;;9.20;99.90;;;;;;5040655;28;20676;-62
2024/04/01 06:32:08;;;;;;;3.10;1.03;;;9.10;99.90;;;;;;5054094;28;21212;-63
2024/04/01 06:34:33;;;;;;;3.13;1.00;;;9.10;99.90;;;;;;5046263;28;20171;-62
2024/04/01 06:36:59;;;;;;;1.27;1.07;;;9.10;99.90;;;;;;5049073;28;20217;-64
2024/04/01 06:39:24;;;;;;;2.43;1.00;;;9.00;99.90;;;;;;5045055;28;20199;-63
2024/04/01 06:41:50;;;;;;;2.30;1.03;;;9.00;99.90;;;;;;5055950;28;20190;-63
2024/04/01 06:44:16;;;;;;;1.00;0.90;;;9.00;99.90;;;;;;5043395;28;20545;-62
2024/04/01 06:46:41;;;;;;;1.83;0.83;;;8.90;99.90;;;;;;5044311;28;20276;-63
2024/04/01 06:49:07;;;;;;;1.03;1.00;;;8.90;99.90;;;;;;5043025;28;20194;-63
2024/04/01 06:51:33;;;;;;;0.93;0.83;;;8.80;99.90;;;;;;5041707;28;20176;-62
2024/04/01 06:53:58;;;;;;;0.80;0.80;;;8.80;99.90;;;;;;5048079;28;20444;-63
2024/04/01 06:56:24;;;;;;;1.17;0.90;;;8.80;99.90;;;;;;5039451;28;20271;-63
2024/04/01 06:58:50;;;;;;;1.23;1.00;;;8.80;99.90;;;;;;5043857;28;20183;-63
2024/04/01 07:01:16;;;;;;;0.83;0.83;;;8.80;99.90;;;;;;5038361;28;20226;-62
2024/04/01 07:03:42;;;;;;;1.00;0.90;;;8.80;99.90;;;;;;5043077;28;21130;-64
2024/04/01 07:06:07;;;;;;;1.20;1.10;;;8.80;99.90;;;;;;5041828;28;20182;-64
2024/04/01 07:08:33;;;;;;;0.90;0.90;;;8.80;99.90;;;;;;5054710;28;20581;-62
2024/04/01 07:10:59;;;;;;;0.90;0.80;;;8.80;99.90;;;;;;5042404;28;20195;-63
2024/04/01 07:13:25;;;;;;;1.20;1.10;;;8.80;99.90;;;;;;5040173;28;20581;-63
2024/04/01 07:15:51;;;;;;;0.90;0.90;;;8.80;99.90;;;;;;5043165;28;20183;-64
2024/04/01 07:18:16;;;;;;;1.20;1.10;;;8.80;99.90;;;;;;5048480;28;20496;-61
2024/04/01 07:20:42;;;;;;;2.47;1.17;;;8.80;99.90;;;;;;5042866;28;20500;-63
2024/04/01 07:23:08;;;;;;;0.90;0.90;;;8.80;99.90;;;;;;5045829;28;20191;-63
2024/04/01 07:25:33;;;;;;;2.00;0.80;;;8.80;99.90;;;;;;5046752;28;20175;-63
2024/04/01 07:27:59;;;;;;;5.30;1.00;;;8.80;99.90;;;;;;5043206;28;20195;-63
2024/04/01 07:30:24;;;;;;;0.80;0.80;;;8.70;99.90;;;;;;5045201;28;20203;-63
2024/04/01 07:32:50;;;;;;;1.23;1.03;;;8.70;99.90;;;;;;5028253;28;20669;-63
2024/04/01 07:35:16;;;;;;;1.00;1.00;;;8.70;99.90;;;;;;5043323;28;20214;-63
2024/04/01 07:37:41;;;;;;;1.70;1.50;;;8.70;99.90;;;;;;5041072;28;20175;-63
2024/04/01 07:40:07;;;;;;;1.77;1.10;;;8.70;99.90;;;;;;5039940;28;20332;-62
2024/04/01 07:42:33;;;;;;;3.37;1.10;;;8.70;99.90;;;;;;5041876;28;20646;-62
2024/04/01 07:44:59;;;;;;;1.00;0.90;;;8.70;99.90;;;;;;5042924;28;21012;-63
2024/04/01 07:47:25;;;;;;;0.90;0.90;;;8.70;99.90;;;;;;5040585;28;20202;-63
2024/04/01 07:49:51;;;;;;;1.10;1.00;;;8.70;99.90;;;;;;5043646;28;20819;-64
2024/04/01 07:52:16;;;;;;;1.70;1.60;;;8.70;99.90;;;;;;5047969;28;20225;-63
2024/04/01 07:54:42;;;;;;;1.30;1.20;;;8.70;99.90;;;;;;5046022;28;20309;-63
2024/04/01 07:57:10;;;;;;;1.40;1.13;;;8.70;99.90;;;;;;5049800;28;20273;-63
2024/04/01 07:59:36;;;;;;;2.53;1.20;;;8.70;99.90;;;;;;5050318;28;20273;-62
2024/04/01 08:02:03;;;;;;;1.00;1.00;;;8.70;99.90;;;;;;5052926;28;20459;-63
2024/04/01 08:04:28;;;;;;;1.00;1.00;;;8.70;99.90;;;;;;5036140;28;20190;-64
2024/04/01 08:06:55;;;;;;;1.20;1.10;;;8.70;99.90;;;;;;5045433;28;20886;-65
2024/04/01 08:09:21;;;;;;;1.67;1.57;;;8.70;99.90;;;;;;5047147;28;20274;-63
2024/04/01 08:11:48;;;;;;;1.00;1.00;;;8.70;99.90;;;;;;5031932;28;20424;-61
2024/04/01 08:14:13;;;;;;;4.77;1.20;;;8.70;99.90;;;;;;5031592;28;20985;-64
2024/04/01 08:16:42;;;;;;;2.67;1.10;;;8.70;99.90;;;;;;5046629;28;20434;-63
2024/04/01 08:19:08;;;;;;;1.43;1.20;;;8.80;99.90;;;;;;5044029;28;20207;-64
2024/04/01 08:21:33;;;;;;;1.10;1.00;;;8.80;99.90;;;;;;5037160;28;20441;-63
2024/04/01 08:23:59;;;;;;;1.00;1.00;;;8.80;99.90;;;;;;5049489;28;20175;-63
2024/04/01 08:26:24;;;;;;;1.13;1.07;;;8.80;99.90;;;;;;5042506;28;20260;-64
2024/04/01 08:28:53;;;;;;;1.30;1.20;;;8.80;99.90;;;;;;5044665;28;20290;-64
2024/04/01 08:31:18;;;;;;;2.60;1.00;;;8.80;99.90;;;;;;5036920;28;20271;-63
2024/04/01 08:33:44;;;;;;;0.93;0.93;;;8.80;99.90;;;;;;5048180;28;20890;-64
2024/04/01 08:36:10;;;;;;;1.20;1.10;;;8.80;99.90;;;;;;5046122;28;20179;-64
2024/04/01 08:38:36;;;;;;;1.10;1.07;;;8.80;99.90;;;;;;5050611;28;20175;-62
2024/04/01 08:41:08;;;;;;;1.40;1.30;;;8.90;99.90;;;;;;5040880;28;20269;-63
2024/04/01 08:43:38;;;;;;;1.00;0.90;;;8.90;99.90;;;;;;5049078;28;20175;-64
2024/04/01 08:46:04;;;;;;;1.20;1.10;;;8.90;99.90;;;;;;5044072;28;20405;-62
2024/04/01 08:48:31;;;;;;;1.20;1.10;;;8.90;99.90;;;;;;5048044;28;20410;-63
2024/04/01 08:51:03;;;;;;;1.10;1.00;;;8.90;99.90;;;;;;5051600;28;20441;-63
2024/04/01 08:54:01;;;;;;;0.73;0.73;;;8.90;99.90;;;;;;5045132;28;20410;-63
2024/04/01 08:56:28;;;;;;;0.80;0.80;;;8.80;99.90;;;;;;5047167;28;20405;-63
2024/04/01 08:58:58;;;;;;;0.73;0.73;;;8.80;99.90;;;;;;5042271;28;20426;-63
2024/04/01 09:01:24;;;;;;;0.80;0.80;;;8.80;99.90;;;;;;5043904;28;20481;-63
2024/04/01 09:03:51;;;;;;;0.80;0.80;;;8.80;99.90;;;;;;5049618;28;20881;-63
2024/04/01 09:06:18;;;;;;;0.80;0.80;;;8.80;97.10;;;;;;5040483;28;20529;-64
2024/04/01 09:08:46;;;;;;;0.93;0.77;;;8.80;95.40;;;;;;5039193;28;20427;-63
2024/04/01 09:11:13;;;;;;;0.90;0.90;;;8.80;98.40;;;;;;5047450;28;20438;-63
2024/04/01 09:13:39;;;;;;;1.40;1.03;;;8.80;96.70;;;;;;5045019;28;20905;-62
2024/04/01 09:16:06;;;;;;;1.27;1.07;;;8.80;96.10;;;;;;5025594;28;20446;-64
2024/04/01 09:18:36;;;;;;;1.20;1.10;;;8.70;95.20;;;;;;5045420;28;20429;-64
2024/04/01 09:21:05;;;;;;;1.13;1.03;;;8.70;96.10;;;;;;5039740;28;20533;-63
2024/04/01 09:23:41;;;;;;;4.23;0.90;;;8.70;96.10;;;;;;5051595;28;20434;-62
2024/04/01 09:26:06;;;;;;;1.20;1.10;;;8.80;94.20;;;;;;5040203;28;20425;-64
2024/04/01 09:28:32;;;;;;;2.23;1.10;;;8.80;94.30;;;;;;5044092;28;20430;-63
2024/04/01 09:30:58;;;;;;;1.80;1.17;;;8.80;94.00;;;;;;5048435;28;20230;-64
2024/04/01 09:33:24;;;;;;;0.90;0.90;;;8.80;93.30;;;;;;5048043;28;20205;-64
2024/04/01 09:35:50;;;;;;;1.00;0.90;;;8.80;92.70;;;;;;5043055;28;20175;-63
2024/04/01 09:38:17;;;;;;;1.27;1.17;;;8.70;90.80;;;;;;5038532;28;20556;-63
2024/04/01 09:40:48;;;;;;;1.57;1.30;;;8.70;93.20;;;;;;5040779;28;20532;-63
2024/04/01 09:43:20;;;;;;;2.00;1.80;;;8.70;94.50;;;;;;5049944;28;20414;-63
2024/04/01 09:45:50;;;;;;;1.27;0.80;;;8.80;93.40;;;;;;5040275;28;20464;-63
2024/04/01 09:48:15;;;;;;;0.90;0.90;;;8.70;91.90;;;;;;5030029;28;20465;-63
2024/04/01 09:50:47;;;;;;;1.10;1.10;;;8.70;88.50;;;;;;5040730;28;20460;-64
2024/04/01 09:53:12;;;;;;;0.80;0.80;;;8.70;89.70;;;;;;5041192;28;20657;-64
2024/04/01 09:55:51;;;;;;;0.90;0.80;;;8.70;92.50;;;;;;5050021;28;20432;-64
2024/04/01 09:58:32;;;;;;;1.00;1.00;;;8.70;90.10;;;;;;5025303;28;20204;-63
2024/04/01 10:01:23;;;;;;;0.97;0.93;;;8.80;91.30;;;;;;5042984;28;20437;-63
2024/04/01 10:04:10;;;;;;;1.10;1.00;;;8.80;86.70;;;;;;5028657;28;20483;-63
2024/04/01 10:06:50;;;;;;;1.30;1.20;;;8.70;90.60;;;;;;5048104;28;20904;-63
2024/04/01 10:09:57;;;;;;;1.43;0.90;;;8.80;90.70;;;;;;5044445;28;20440;-63
2024/04/01 10:12:36;;;;;;;0.90;0.80;;;8.80;91.10;;;;;;4996490;28;20417;-63
2024/04/01 10:15:26;;;;;;;1.20;0.93;;;8.80;92.10;;;;;;5042802;28;20402;-62
2024/04/01 10:18:16;;;;;;;0.73;0.73;;;8.80;91.60;;;;;;5043614;28;20897;-62
2024/04/01 10:21:00;;;;;;;0.80;0.80;;;8.90;86.10;;;;;;5044795;28;20441;-64
2024/04/01 10:23:55;;;;;;;0.70;0.70;;;8.80;82.30;;;;;;5028866;28;20523;-63
2024/04/01 10:26:47;;;;;;;0.70;0.70;;;8.80;78.80;;;;;;5052013;28;20409;-64
2024/04/01 10:29:30;;;;;;;0.80;0.80;;;8.70;79.50;;;;;;5043124;28;20453;-65
2024/04/01 10:32:23;;;;;;;0.70;0.70;;;8.70;77.10;;;;;;5029373;28;20414;-63
2024/04/01 10:35:15;;;;;;;1.77;1.53;;;8.70;80.90;;;;;;5043655;28;21007;-61
2024/04/01 10:38:14;;;;;;;0.80;0.80;;;8.80;78.70;;;;;;5037474;28;21107;-64
2024/04/01 10:41:04;;;;;;;1.10;0.60;;;8.80;79.90;;;;;;5048226;28;20450;-64
2024/04/01 10:43:54;;;;;;;1.00;1.00;;;8.80;74.00;;;;;;5036525;28;20406;-62
2024/04/01 10:46:37;;;;;;;0.80;0.80;;;8.80;75.30;;;;;;5045328;28;20423;-64
2024/04/01 10:49:22;;;;;;;1.00;1.00;;;8.80;77.80;;;;;;5047199;28;20425;-63
2024/04/01 10:52:12;;;;;;;1.20;1.10;;;8.80;75.40;;;;;;5023671;28;20505;-63
2024/04/01 10:54:57;;;;;;;0.70;0.70;;;8.90;76.20;;;;;;5039905;28;20903;-61
2024/04/01 10:57:44;;;;;;;1.90;1.57;;;8.90;75.70;;;;;;5040660;28;20502;-63
2024/04/01 11:00:21;;;;;;;1.20;1.10;;;9.00;74.70;;;;;;5047482;28;20591;-63
2024/04/01 11:02:49;;;;;;;0.80;0.80;;;9.00;70.90;;;;;;5033070;28;20555;-62
2024/04/01 11:05:21;;;;;;;1.27;1.00;;;9.00;70.80;;;;;;5045904;28;20456;-64
2024/04/01 11:08:08;;;;;;;0.80;0.80;;;9.00;71.00;;;;;;5038065;28;20466;-63
2024/04/01 11:10:47;;;;;;;1.13;1.03;;;9.00;70.50;;;;;;5043597;28;20542;-63
2024/04/01 11:13:19;;;;;;;1.20;1.03;;;9.10;72.70;;;;;;5030467;28;20437;-64
2024/04/01 11:15:51;;;;;;;1.23;1.17;;;9.10;70.40;;;;;;5045385;28;20864;-63
2024/04/01 11:18:38;;;;;;;0.90;0.90;;;9.20;70.20;;;;;;5037487;28;20794;-62
2024/04/01 11:21:25;;;;;;;0.80;0.80;;;9.30;68.80;;;;;;5043170;28;20833;-62
2024/04/01 11:24:18;;;;;;;1.37;0.90;;;9.30;68.60;;;;;;5029806;28;20915;-63
2024/04/01 11:27:11;;;;;;;0.87;0.87;;;9.30;68.50;;;;;;5042497;28;20465;-63
2024/04/01 11:30:04;;;;;;;0.73;0.73;;;9.30;69.00;;;;;;5032208;28;20449;-64
2024/04/01 11:32:34;;;;;;;0.83;0.83;;;9.40;69.30;;;;;;5047140;28;20520;-62
2024/04/01 11:35:23;;;;;;;0.70;0.70;;;9.40;68.00;;;;;;5039039;28;20422;-64
2024/04/01 11:38:00;;;;;;;0.87;0.87;;;9.40;67.10;;;;;;5044224;28;20418;-62
2024/04/01 11:40:31;;;;;;;0.70;0.70;;;9.50;68.10;;;;;;5050484;28;20432;-62
2024/04/01 11:43:03;;;;;;;0.70;0.70;;;9.50;66.60;;;;;;5054548;28;20429;-63
2024/04/01 11:45:32;;;;;;;0.93;0.90;;;9.50;66.40;;;;;;5045791;28;20401;-63
2024/04/01 11:47:59;;;;;;;0.80;0.80;;;9.50;66.60;;;;;;5049842;28;20471;-63
2024/04/01 11:50:25;;;;;;;1.30;1.20;;;9.40;67.10;;;;;;5050897;28;20500;-63
2024/04/01 11:53:17;;;;;;;0.77;0.70;;;9.40;66.90;;;;;;5027777;28;20951;-63
2024/04/01 11:55:58;;;;;;;1.10;1.00;;;9.40;66.20;;;;;;5034717;28;20713;-63
2024/04/01 11:58:24;;;;;;;0.80;0.80;;;9.30;66.50;;;;;;5034843;28;20865;-63
2024/04/01 12:00:54;;;;;;;1.17;0.90;;;9.40;67.30;;;;;;5047896;28;20441;-63
2024/04/01 12:03:21;;;;;;;1.13;0.80;;;9.40;65.80;;;;;;5052248;28;20428;-62
2024/04/01 12:05:51;;;;;;;0.90;0.70;;;9.40;66.70;;;;;;5046931;28;20417;-62
2024/04/01 12:08:25;;;;;;;0.90;0.70;;;9.40;66.70;;;;;;5045219;28;20552;-64
2024/04/01 12:10:52;;;;;;;1.07;0.83;;;9.30;65.30;;;;;;5046296;28;20460;-63
2024/04/01 12:13:27;;;;;;;0.60;0.60;;;9.30;66.00;;;;;;5051883;28;20409;-63
2024/04/01 12:15:58;;;;;;;0.80;0.80;;;9.30;64.40;;;;;;5052731;28;20425;-63
2024/04/01 12:18:24;;;;;;;0.90;0.90;;;9.30;63.80;;;;;;5044338;28;20501;-65
2024/04/01 12:20:55;;;;;;;0.80;0.80;;;9.30;63.80;;;;;;5049874;28;20529;-62
2024/04/01 12:23:27;;;;;;;0.70;0.70;;;9.30;63.80;;;;;;5035986;28;20701;-64
2024/04/01 12:26:04;;;;;;;0.80;0.80;;;9.30;63.50;;;;;;5041652;28;21062;-63
2024/04/01 12:28:29;;;;;;;0.70;0.70;;;9.30;63.30;;;;;;5047004;28;20453;-63
2024/04/01 12:30:58;;;;;;;0.70;0.70;;;9.30;64.00;;;;;;5036957;28;20975;-64
2024/04/01 12:33:28;;;;;;;1.00;0.80;;;9.30;63.60;;;;;;5048165;28;20733;-63
2024/04/01 12:35:54;;;;;;;1.83;0.80;;;9.40;64.40;;;;;;5049829;28;20414;-63
2024/04/01 12:38:24;;;;;;;1.00;0.90;;;9.40;63.80;;;;;;5025272;28;20461;-64
2024/04/01 12:40:54;;;;;;;0.90;0.90;;;9.40;64.10;;;;;;5052852;28;20442;-62
2024/04/01 12:43:26;;;;;;;1.00;1.00;;;9.50;64.50;;;;;;5022165;28;20415;-62
2024/04/01 12:45:53;;;;;;;0.80;0.80;;;9.50;63.70;;;;;;5046544;28;20467;-63
2024/04/01 12:48:20;;;;;;;0.80;0.80;;;9.50;63.60;;;;;;5028954;28;20457;-62
2024/04/01 12:51:02;;;;;;;1.20;1.07;;;9.50;63.90;;;;;;5045139;28;20463;-63
2024/04/01 12:53:47;;;;;;;1.00;0.90;;;9.50;63.50;;;;;;5048031;28;20453;-64
2024/04/01 12:56:28;;;;;;;1.20;1.10;;;9.40;62.80;;;;;;5031961;28;20409;-64
2024/04/01 12:59:50;;;;;;;0.70;0.70;;;9.40;63.10;;;;;;5044389;28;20413;-64
2024/04/01 13:02:27;;;;;;;0.70;0.70;;;9.30;63.10;;;;;;4942115;28;20533;-63
2024/04/01 13:05:11;;;;;;;0.70;0.70;;;9.30;63.30;;;;;;4944794;28;20445;-64